sensor_id;sensor_type;location;lat;lon;timestamp;P1;durP1;ratioP1;P2;durP2;ratioP2
30327;SDS011;17133;52.418;13.398;2022-08-19T00:01:40;18.27;;;16.40;;
30327;SDS011;17133;52.418;13.398;2022-08-19T00:04:11;19.83;;;17.88;;
30327;SDS011;17133;52.418;13.398;2022-08-19T00:06:39;19.50;;;17.50;;
30327;SDS011;17133;52.418;13.398;2022-08-19T00:09:07;19.45;;;17.55;;
30327;SDS011;17133;52.418;13.398;2022-08-19T00:11:34;17.65;;;15.70;;
30327;SDS011;17133;52.418;13.398;2022-08-19T00:14:03;18.15;;;16.45;;
30327;SDS011;17133;52.418;13.398;2022-08-19T00:16:29;18.90;;;17.08;;
30327;SDS011;17133;52.418;13.398;2022-08-19T00:18:55;18.17;;;16.33;;
30327;SDS011;17133;52.418;13.398;2022-08-19T00:21:22;17.42;;;15.73;;
30327;SDS011;17133;52.418;13.398;2022-08-19T00:23:48;18.30;;;16.50;;
30327;SDS011;17133;52.418;13.398;2022-08-19T00:26:14;16.77;;;15.27;;
30327;SDS011;17133;52.418;13.398;2022-08-19T00:28:39;16.83;;;15.20;;
30327;SDS011;17133;52.418;13.398;2022-08-19T00:31:06;17.45;;;15.75;;
30327;SDS011;17133;52.418;13.398;2022-08-19T00:33:33;15.80;;;14.40;;
30327;SDS011;17133;52.418;13.398;2022-08-19T00:36:00;18.63;;;16.67;;
30327;SDS011;17133;52.418;13.398;2022-08-19T00:38:28;20.48;;;18.40;;
30327;SDS011;17133;52.418;13.398;2022-08-19T00:40:53;18.77;;;17.08;;
30327;SDS011;17133;52.418;13.398;2022-08-19T00:43:21;19.77;;;16.98;;
30327;SDS011;17133;52.418;13.398;2022-08-19T00:45:48;17.60;;;15.97;;
30327;SDS011;17133;52.418;13.398;2022-08-19T00:48:15;18.67;;;16.77;;
30327;SDS011;17133;52.418;13.398;2022-08-19T00:50:41;22.63;;;20.27;;
30327;SDS011;17133;52.418;13.398;2022-08-19T00:53:09;21.80;;;19.50;;
30327;SDS011;17133;52.418;13.398;2022-08-19T00:55:36;21.48;;;19.27;;
30327;SDS011;17133;52.418;13.398;2022-08-19T00:58:13;19.98;;;17.98;;
30327;SDS011;17133;52.418;13.398;2022-08-19T01:00:41;20.65;;;18.75;;
30327;SDS011;17133;52.418;13.398;2022-08-19T01:03:08;20.67;;;18.65;;
30327;SDS011;17133;52.418;13.398;2022-08-19T01:05:35;21.65;;;19.35;;
30327;SDS011;17133;52.418;13.398;2022-08-19T01:08:03;23.42;;;20.92;;
30327;SDS011;17133;52.418;13.398;2022-08-19T01:10:31;22.20;;;20.00;;
30327;SDS011;17133;52.418;13.398;2022-08-19T01:13:00;23.30;;;21.00;;
30327;SDS011;17133;52.418;13.398;2022-08-19T01:15:31;26.50;;;23.75;;
30327;SDS011;17133;52.418;13.398;2022-08-19T01:18:01;26.25;;;23.45;;
30327;SDS011;17133;52.418;13.398;2022-08-19T01:20:32;26.30;;;23.50;;
30327;SDS011;17133;52.418;13.398;2022-08-19T01:22:59;26.08;;;23.27;;
30327;SDS011;17133;52.418;13.398;2022-08-19T01:25:30;25.77;;;23.02;;
30327;SDS011;17133;52.418;13.398;2022-08-19T01:27:59;21.58;;;19.27;;
30327;SDS011;17133;52.418;13.398;2022-08-19T01:30:27;23.23;;;20.92;;
30327;SDS011;17133;52.418;13.398;2022-08-19T01:32:55;22.55;;;20.20;;
30327;SDS011;17133;52.418;13.398;2022-08-19T01:35:22;25.75;;;19.60;;
30327;SDS011;17133;52.418;13.398;2022-08-19T01:37:54;27.33;;;23.17;;
30327;SDS011;17133;52.418;13.398;2022-08-19T01:40:21;24.67;;;22.08;;
30327;SDS011;17133;52.418;13.398;2022-08-19T01:42:51;28.25;;;24.95;;
30327;SDS011;17133;52.418;13.398;2022-08-19T01:45:18;29.30;;;24.20;;
30327;SDS011;17133;52.418;13.398;2022-08-19T01:47:45;29.38;;;26.17;;
30327;SDS011;17133;52.418;13.398;2022-08-19T01:50:11;29.25;;;25.42;;
30327;SDS011;17133;52.418;13.398;2022-08-19T01:52:39;26.95;;;24.10;;
30327;SDS011;17133;52.418;13.398;2022-08-19T01:55:11;26.90;;;24.08;;
30327;SDS011;17133;52.418;13.398;2022-08-19T01:57:41;25.13;;;22.50;;
30327;SDS011;17133;52.418;13.398;2022-08-19T02:00:10;27.48;;;24.20;;
30327;SDS011;17133;52.418;13.398;2022-08-19T02:02:39;29.55;;;24.90;;
30327;SDS011;17133;52.418;13.398;2022-08-19T02:05:04;30.30;;;27.05;;
30327;SDS011;17133;52.418;13.398;2022-08-19T02:07:32;24.90;;;22.27;;
30327;SDS011;17133;52.418;13.398;2022-08-19T02:09:57;30.40;;;26.92;;
30327;SDS011;17133;52.418;13.398;2022-08-19T02:12:23;30.98;;;26.27;;
30327;SDS011;17133;52.418;13.398;2022-08-19T02:14:49;30.27;;;27.02;;
30327;SDS011;17133;52.418;13.398;2022-08-19T02:17:14;28.67;;;25.77;;
30327;SDS011;17133;52.418;13.398;2022-08-19T02:19:40;29.38;;;26.27;;
30327;SDS011;17133;52.418;13.398;2022-08-19T02:22:06;30.80;;;26.88;;
30327;SDS011;17133;52.418;13.398;2022-08-19T02:24:31;31.52;;;26.10;;
30327;SDS011;17133;52.418;13.398;2022-08-19T02:26:57;29.25;;;26.27;;
30327;SDS011;17133;52.418;13.398;2022-08-19T02:29:23;30.95;;;27.33;;
30327;SDS011;17133;52.418;13.398;2022-08-19T02:31:49;30.30;;;27.13;;
30327;SDS011;17133;52.418;13.398;2022-08-19T02:34:15;33.85;;;28.25;;
30327;SDS011;17133;52.418;13.398;2022-08-19T02:36:41;30.48;;;26.90;;
30327;SDS011;17133;52.418;13.398;2022-08-19T02:39:07;29.88;;;26.60;;
30327;SDS011;17133;52.418;13.398;2022-08-19T02:41:33;29.17;;;26.10;;
30327;SDS011;17133;52.418;13.398;2022-08-19T02:44:00;32.45;;;26.90;;
30327;SDS011;17133;52.418;13.398;2022-08-19T02:46:29;27.60;;;24.70;;
30327;SDS011;17133;52.418;13.398;2022-08-19T02:48:57;27.90;;;25.10;;
30327;SDS011;17133;52.418;13.398;2022-08-19T02:51:33;30.35;;;26.40;;
30327;SDS011;17133;52.418;13.398;2022-08-19T02:54:01;28.83;;;25.83;;
30327;SDS011;17133;52.418;13.398;2022-08-19T02:56:29;26.75;;;22.10;;
30327;SDS011;17133;52.418;13.398;2022-08-19T02:58:56;24.27;;;21.70;;
30327;SDS011;17133;52.418;13.398;2022-08-19T03:01:29;22.48;;;20.27;;
30327;SDS011;17133;52.418;13.398;2022-08-19T03:03:57;22.13;;;19.77;;
30327;SDS011;17133;52.418;13.398;2022-08-19T03:06:24;24.08;;;21.67;;
30327;SDS011;17133;52.418;13.398;2022-08-19T03:08:50;24.17;;;21.77;;
30327;SDS011;17133;52.418;13.398;2022-08-19T03:11:17;23.73;;;21.33;;
30327;SDS011;17133;52.418;13.398;2022-08-19T03:13:48;24.08;;;21.50;;
30327;SDS011;17133;52.418;13.398;2022-08-19T03:16:15;26.30;;;23.60;;
30327;SDS011;17133;52.418;13.398;2022-08-19T03:18:42;25.92;;;23.23;;
30327;SDS011;17133;52.418;13.398;2022-08-19T03:21:08;26.05;;;23.42;;
30327;SDS011;17133;52.418;13.398;2022-08-19T03:23:34;24.63;;;22.02;;
30327;SDS011;17133;52.418;13.398;2022-08-19T03:26:03;24.65;;;22.23;;
30327;SDS011;17133;52.418;13.398;2022-08-19T03:28:31;28.27;;;25.25;;
30327;SDS011;17133;52.418;13.398;2022-08-19T03:31:05;27.02;;;24.25;;
30327;SDS011;17133;52.418;13.398;2022-08-19T03:33:32;26.42;;;23.58;;
30327;SDS011;17133;52.418;13.398;2022-08-19T03:38:38;31.25;;;27.77;;
30327;SDS011;17133;52.418;13.398;2022-08-19T03:41:17;36.75;;;32.85;;
30327;SDS011;17133;52.418;13.398;2022-08-19T03:43:45;33.78;;;30.23;;
30327;SDS011;17133;52.418;13.398;2022-08-19T03:46:15;36.08;;;32.17;;
30327;SDS011;17133;52.418;13.398;2022-08-19T03:48:45;36.55;;;32.55;;
30327;SDS011;17133;52.418;13.398;2022-08-19T03:51:21;40.25;;;33.78;;
30327;SDS011;17133;52.418;13.398;2022-08-19T03:53:50;44.38;;;36.70;;
30327;SDS011;17133;52.418;13.398;2022-08-19T03:56:17;38.90;;;33.65;;
30327;SDS011;17133;52.418;13.398;2022-08-19T03:58:43;39.55;;;32.70;;
30327;SDS011;17133;52.418;13.398;2022-08-19T04:01:10;37.53;;;31.75;;
30327;SDS011;17133;52.418;13.398;2022-08-19T04:03:38;31.98;;;28.45;;
30327;SDS011;17133;52.418;13.398;2022-08-19T04:06:15;32.42;;;28.80;;
30327;SDS011;17133;52.418;13.398;2022-08-19T04:08:46;30.77;;;27.25;;
30327;SDS011;17133;52.418;13.398;2022-08-19T04:11:15;26.90;;;24.10;;
30327;SDS011;17133;52.418;13.398;2022-08-19T04:13:43;38.35;;;27.27;;
30327;SDS011;17133;52.418;13.398;2022-08-19T04:16:09;36.67;;;29.33;;
30327;SDS011;17133;52.418;13.398;2022-08-19T04:18:36;31.88;;;28.63;;
30327;SDS011;17133;52.418;13.398;2022-08-19T04:21:03;28.60;;;25.55;;
30327;SDS011;17133;52.418;13.398;2022-08-19T04:23:29;30.42;;;27.15;;
30327;SDS011;17133;52.418;13.398;2022-08-19T04:25:55;26.67;;;23.85;;
30327;SDS011;17133;52.418;13.398;2022-08-19T04:28:21;30.10;;;26.88;;
30327;SDS011;17133;52.418;13.398;2022-08-19T04:30:48;29.83;;;26.63;;
30327;SDS011;17133;52.418;13.398;2022-08-19T04:33:17;28.20;;;25.25;;
30327;SDS011;17133;52.418;13.398;2022-08-19T04:35:46;30.58;;;27.25;;
30327;SDS011;17133;52.418;13.398;2022-08-19T04:38:13;29.52;;;26.52;;
30327;SDS011;17133;52.418;13.398;2022-08-19T04:40:44;30.63;;;27.25;;
30327;SDS011;17133;52.418;13.398;2022-08-19T04:43:33;25.52;;;22.95;;
30327;SDS011;17133;52.418;13.398;2022-08-19T04:46:06;31.50;;;28.33;;
30327;SDS011;17133;52.418;13.398;2022-08-19T04:48:33;32.00;;;28.77;;
30327;SDS011;17133;52.418;13.398;2022-08-19T04:50:59;30.00;;;26.25;;
30327;SDS011;17133;52.418;13.398;2022-08-19T04:58:20;28.15;;;25.13;;
30327;SDS011;17133;52.418;13.398;2022-08-19T05:00:46;30.50;;;27.55;;
30327;SDS011;17133;52.418;13.398;2022-08-19T05:03:11;30.05;;;27.02;;
30327;SDS011;17133;52.418;13.398;2022-08-19T05:05:39;27.05;;;24.45;;
30327;SDS011;17133;52.418;13.398;2022-08-19T05:08:06;29.75;;;26.52;;
30327;SDS011;17133;52.418;13.398;2022-08-19T05:10:34;28.25;;;25.35;;
30327;SDS011;17133;52.418;13.398;2022-08-19T05:13:01;28.60;;;25.80;;
30327;SDS011;17133;52.418;13.398;2022-08-19T05:15:26;25.45;;;22.75;;
30327;SDS011;17133;52.418;13.398;2022-08-19T05:17:52;27.30;;;24.52;;
30327;SDS011;17133;52.418;13.398;2022-08-19T05:20:44;27.55;;;24.75;;
30327;SDS011;17133;52.418;13.398;2022-08-19T05:23:28;24.58;;;22.23;;
30327;SDS011;17133;52.418;13.398;2022-08-19T05:25:55;26.80;;;23.95;;
30327;SDS011;17133;52.418;13.398;2022-08-19T05:28:21;28.10;;;24.30;;
30327;SDS011;17133;52.418;13.398;2022-08-19T05:30:47;30.00;;;23.77;;
30327;SDS011;17133;52.418;13.398;2022-08-19T05:33:15;27.57;;;24.80;;
30327;SDS011;17133;52.418;13.398;2022-08-19T05:35:42;30.98;;;26.35;;
30327;SDS011;17133;52.418;13.398;2022-08-19T05:38:08;28.10;;;25.17;;
30327;SDS011;17133;52.418;13.398;2022-08-19T05:40:36;26.00;;;23.25;;
30327;SDS011;17133;52.418;13.398;2022-08-19T05:43:03;30.55;;;24.63;;
30327;SDS011;17133;52.418;13.398;2022-08-19T05:45:30;27.33;;;24.48;;
30327;SDS011;17133;52.418;13.398;2022-08-19T05:47:56;26.65;;;24.05;;
30327;SDS011;17133;52.418;13.398;2022-08-19T05:50:23;27.08;;;24.33;;
30327;SDS011;17133;52.418;13.398;2022-08-19T05:52:51;27.75;;;24.98;;
30327;SDS011;17133;52.418;13.398;2022-08-19T05:55:17;27.23;;;24.42;;
30327;SDS011;17133;52.418;13.398;2022-08-19T05:57:45;32.63;;;25.20;;
30327;SDS011;17133;52.418;13.398;2022-08-19T06:00:12;22.92;;;20.67;;
30327;SDS011;17133;52.418;13.398;2022-08-19T06:02:38;26.45;;;23.63;;
30327;SDS011;17133;52.418;13.398;2022-08-19T06:05:05;25.23;;;22.73;;
30327;SDS011;17133;52.418;13.398;2022-08-19T06:07:34;24.80;;;22.17;;
30327;SDS011;17133;52.418;13.398;2022-08-19T06:10:01;32.92;;;25.83;;
30327;SDS011;17133;52.418;13.398;2022-08-19T06:12:30;28.35;;;25.38;;
30327;SDS011;17133;52.418;13.398;2022-08-19T06:15:01;27.33;;;24.55;;
30327;SDS011;17133;52.418;13.398;2022-08-19T06:17:27;28.38;;;25.10;;
30327;SDS011;17133;52.418;13.398;2022-08-19T06:19:54;29.05;;;26.15;;
30327;SDS011;17133;52.418;13.398;2022-08-19T06:22:20;27.33;;;24.52;;
30327;SDS011;17133;52.418;13.398;2022-08-19T06:24:46;25.58;;;22.73;;
30327;SDS011;17133;52.418;13.398;2022-08-19T06:27:11;28.20;;;25.27;;
30327;SDS011;17133;52.418;13.398;2022-08-19T06:29:37;26.42;;;23.60;;
30327;SDS011;17133;52.418;13.398;2022-08-19T06:32:04;27.35;;;24.50;;
30327;SDS011;17133;52.418;13.398;2022-08-19T06:34:31;27.23;;;24.40;;
30327;SDS011;17133;52.418;13.398;2022-08-19T06:36:59;25.42;;;22.83;;
30327;SDS011;17133;52.418;13.398;2022-08-19T06:39:29;28.23;;;25.42;;
30327;SDS011;17133;52.418;13.398;2022-08-19T06:41:57;25.05;;;22.75;;
30327;SDS011;17133;52.418;13.398;2022-08-19T06:44:27;24.98;;;22.60;;
30327;SDS011;17133;52.418;13.398;2022-08-19T06:46:54;25.50;;;22.97;;
30327;SDS011;17133;52.418;13.398;2022-08-19T06:49:21;29.17;;;22.65;;
30327;SDS011;17133;52.418;13.398;2022-08-19T06:51:48;32.42;;;25.05;;
30327;SDS011;17133;52.418;13.398;2022-08-19T06:54:15;26.80;;;23.80;;
30327;SDS011;17133;52.418;13.398;2022-08-19T06:56:42;26.17;;;23.58;;
30327;SDS011;17133;52.418;13.398;2022-08-19T06:59:09;26.33;;;23.73;;
30327;SDS011;17133;52.418;13.398;2022-08-19T07:01:38;28.27;;;25.40;;
30327;SDS011;17133;52.418;13.398;2022-08-19T07:04:06;26.92;;;24.23;;
30327;SDS011;17133;52.418;13.398;2022-08-19T07:06:33;30.88;;;25.60;;
30327;SDS011;17133;52.418;13.398;2022-08-19T07:08:59;28.35;;;25.50;;
30327;SDS011;17133;52.418;13.398;2022-08-19T07:11:25;32.17;;;26.90;;
30327;SDS011;17133;52.418;13.398;2022-08-19T07:13:51;26.38;;;23.60;;
30327;SDS011;17133;52.418;13.398;2022-08-19T07:16:18;25.85;;;23.40;;
30327;SDS011;17133;52.418;13.398;2022-08-19T07:18:45;26.52;;;23.88;;
30327;SDS011;17133;52.418;13.398;2022-08-19T07:21:18;27.30;;;24.40;;
30327;SDS011;17133;52.418;13.398;2022-08-19T07:23:49;26.92;;;24.17;;
30327;SDS011;17133;52.418;13.398;2022-08-19T07:26:22;28.10;;;25.00;;
30327;SDS011;17133;52.418;13.398;2022-08-19T07:28:52;27.70;;;24.73;;
30327;SDS011;17133;52.418;13.398;2022-08-19T07:31:20;25.73;;;23.13;;
30327;SDS011;17133;52.418;13.398;2022-08-19T07:33:48;28.90;;;25.90;;
30327;SDS011;17133;52.418;13.398;2022-08-19T07:36:17;28.20;;;25.40;;
30327;SDS011;17133;52.418;13.398;2022-08-19T07:38:45;29.23;;;25.90;;
30327;SDS011;17133;52.418;13.398;2022-08-19T07:41:14;25.50;;;23.10;;
30327;SDS011;17133;52.418;13.398;2022-08-19T07:43:43;28.00;;;25.13;;
30327;SDS011;17133;52.418;13.398;2022-08-19T07:46:11;26.38;;;23.83;;
30327;SDS011;17133;52.418;13.398;2022-08-19T07:48:38;27.00;;;24.13;;
30327;SDS011;17133;52.418;13.398;2022-08-19T07:51:06;27.08;;;24.38;;
30327;SDS011;17133;52.418;13.398;2022-08-19T07:53:33;27.48;;;24.65;;
30327;SDS011;17133;52.418;13.398;2022-08-19T07:56:01;26.25;;;23.50;;
30327;SDS011;17133;52.418;13.398;2022-08-19T08:00:57;26.77;;;24.20;;
30327;SDS011;17133;52.418;13.398;2022-08-19T08:03:24;29.55;;;26.08;;
30327;SDS011;17133;52.418;13.398;2022-08-19T08:06:10;27.35;;;24.75;;
30327;SDS011;17133;52.418;13.398;2022-08-19T08:08:55;25.52;;;23.02;;
30327;SDS011;17133;52.418;13.398;2022-08-19T08:11:36;28.17;;;25.38;;
30327;SDS011;17133;52.418;13.398;2022-08-19T08:14:03;25.73;;;23.33;;
30327;SDS011;17133;52.418;13.398;2022-08-19T08:16:29;27.85;;;25.20;;
30327;SDS011;17133;52.418;13.398;2022-08-19T08:18:59;25.30;;;22.77;;
30327;SDS011;17133;52.418;13.398;2022-08-19T08:21:25;25.48;;;23.08;;
30327;SDS011;17133;52.418;13.398;2022-08-19T08:23:51;24.58;;;22.05;;
30327;SDS011;17133;52.418;13.398;2022-08-19T08:26:18;25.30;;;22.90;;
30327;SDS011;17133;52.418;13.398;2022-08-19T08:28:43;26.50;;;23.80;;
30327;SDS011;17133;52.418;13.398;2022-08-19T08:31:09;29.20;;;26.25;;
30327;SDS011;17133;52.418;13.398;2022-08-19T08:33:35;29.15;;;26.35;;
30327;SDS011;17133;52.418;13.398;2022-08-19T08:36:02;28.90;;;26.08;;
30327;SDS011;17133;52.418;13.398;2022-08-19T08:38:30;25.10;;;22.58;;
30327;SDS011;17133;52.418;13.398;2022-08-19T08:40:59;28.17;;;25.48;;
30327;SDS011;17133;52.418;13.398;2022-08-19T08:43:35;29.48;;;26.70;;
30327;SDS011;17133;52.418;13.398;2022-08-19T08:51:19;26.63;;;24.02;;
30327;SDS011;17133;52.418;13.398;2022-08-19T08:53:49;31.05;;;27.88;;
30327;SDS011;17133;52.418;13.398;2022-08-19T08:56:16;31.52;;;27.23;;
30327;SDS011;17133;52.418;13.398;2022-08-19T08:58:59;31.20;;;28.08;;
30327;SDS011;17133;52.418;13.398;2022-08-19T09:01:35;35.30;;;28.67;;
30327;SDS011;17133;52.418;13.398;2022-08-19T09:04:05;33.33;;;29.15;;
30327;SDS011;17133;52.418;13.398;2022-08-19T09:06:36;30.75;;;27.65;;
30327;SDS011;17133;52.418;13.398;2022-08-19T09:17:13;32.50;;;29.25;;
30327;SDS011;17133;52.418;13.398;2022-08-19T09:19:56;33.10;;;29.90;;
30327;SDS011;17133;52.418;13.398;2022-08-19T09:22:23;33.40;;;30.20;;
30327;SDS011;17133;52.418;13.398;2022-08-19T09:24:51;33.95;;;30.48;;
30327;SDS011;17133;52.418;13.398;2022-08-19T09:27:21;32.03;;;28.77;;
30327;SDS011;17133;52.418;13.398;2022-08-19T09:29:49;35.85;;;29.75;;
30327;SDS011;17133;52.418;13.398;2022-08-19T09:32:15;33.13;;;29.77;;
30327;SDS011;17133;52.418;13.398;2022-08-19T09:34:43;32.50;;;29.52;;
30327;SDS011;17133;52.418;13.398;2022-08-19T09:37:09;33.03;;;29.70;;
30327;SDS011;17133;52.418;13.398;2022-08-19T09:39:35;32.47;;;29.10;;
30327;SDS011;17133;52.418;13.398;2022-08-19T09:42:02;31.55;;;28.42;;
30327;SDS011;17133;52.418;13.398;2022-08-19T09:44:28;30.67;;;27.55;;
30327;SDS011;17133;52.418;13.398;2022-08-19T09:46:54;31.00;;;27.90;;
30327;SDS011;17133;52.418;13.398;2022-08-19T09:49:21;31.75;;;27.35;;
30327;SDS011;17133;52.418;13.398;2022-08-19T09:51:49;29.83;;;26.83;;
30327;SDS011;17133;52.418;13.398;2022-08-19T09:54:15;30.27;;;27.20;;
30327;SDS011;17133;52.418;13.398;2022-08-19T09:56:41;29.88;;;26.77;;
30327;SDS011;17133;52.418;13.398;2022-08-19T09:59:07;32.70;;;29.58;;
30327;SDS011;17133;52.418;13.398;2022-08-19T10:01:34;30.75;;;27.77;;
30327;SDS011;17133;52.418;13.398;2022-08-19T10:04:00;30.20;;;27.40;;
30327;SDS011;17133;52.418;13.398;2022-08-19T10:06:29;30.70;;;27.60;;
30327;SDS011;17133;52.418;13.398;2022-08-19T10:11:23;30.08;;;27.08;;
30327;SDS011;17133;52.418;13.398;2022-08-19T10:13:49;30.30;;;27.30;;
30327;SDS011;17133;52.418;13.398;2022-08-19T10:16:16;28.90;;;26.00;;
30327;SDS011;17133;52.418;13.398;2022-08-19T10:18:45;26.38;;;23.70;;
30327;SDS011;17133;52.418;13.398;2022-08-19T10:21:12;27.77;;;24.77;;
30327;SDS011;17133;52.418;13.398;2022-08-19T10:23:41;26.75;;;24.15;;
30327;SDS011;17133;52.418;13.398;2022-08-19T10:26:12;26.50;;;23.73;;
30327;SDS011;17133;52.418;13.398;2022-08-19T10:28:40;28.95;;;26.02;;
30327;SDS011;17133;52.418;13.398;2022-08-19T10:31:11;26.08;;;23.58;;
30327;SDS011;17133;52.418;13.398;2022-08-19T10:33:39;26.95;;;24.25;;
30327;SDS011;17133;52.418;13.398;2022-08-19T10:36:07;26.17;;;23.38;;
30327;SDS011;17133;52.418;13.398;2022-08-19T10:38:40;25.67;;;23.13;;
30327;SDS011;17133;52.418;13.398;2022-08-19T10:41:10;26.70;;;24.10;;
30327;SDS011;17133;52.418;13.398;2022-08-19T10:43:38;27.05;;;24.40;;
30327;SDS011;17133;52.418;13.398;2022-08-19T10:46:08;26.52;;;23.85;;
30327;SDS011;17133;52.418;13.398;2022-08-19T10:48:36;28.77;;;25.95;;
30327;SDS011;17133;52.418;13.398;2022-08-19T10:51:03;26.67;;;24.08;;
30327;SDS011;17133;52.418;13.398;2022-08-19T10:53:47;26.90;;;24.25;;
30327;SDS011;17133;52.418;13.398;2022-08-19T10:56:14;29.05;;;24.92;;
30327;SDS011;17133;52.418;13.398;2022-08-19T10:58:58;28.00;;;25.38;;
30327;SDS011;17133;52.418;13.398;2022-08-19T11:01:25;31.83;;;26.75;;
30327;SDS011;17133;52.418;13.398;2022-08-19T11:03:52;25.77;;;23.35;;
30327;SDS011;17133;52.418;13.398;2022-08-19T11:06:18;27.90;;;24.17;;
30327;SDS011;17133;52.418;13.398;2022-08-19T11:08:44;23.92;;;21.73;;
30327;SDS011;17133;52.418;13.398;2022-08-19T11:11:10;23.77;;;21.38;;
30327;SDS011;17133;52.418;13.398;2022-08-19T11:13:37;23.10;;;20.80;;
30327;SDS011;17133;52.418;13.398;2022-08-19T11:16:08;24.50;;;21.98;;
30327;SDS011;17133;52.418;13.398;2022-08-19T11:18:39;25.45;;;23.02;;
30327;SDS011;17133;52.418;13.398;2022-08-19T11:21:08;22.90;;;20.70;;
30327;SDS011;17133;52.418;13.398;2022-08-19T11:23:39;21.20;;;19.15;;
30327;SDS011;17133;52.418;13.398;2022-08-19T11:26:05;20.45;;;18.55;;
30327;SDS011;17133;52.418;13.398;2022-08-19T11:28:31;23.60;;;20.98;;
30327;SDS011;17133;52.418;13.398;2022-08-19T11:30:57;23.02;;;20.90;;
30327;SDS011;17133;52.418;13.398;2022-08-19T11:33:22;24.80;;;22.20;;
30327;SDS011;17133;52.418;13.398;2022-08-19T11:35:50;24.52;;;22.02;;
30327;SDS011;17133;52.418;13.398;2022-08-19T11:38:15;25.73;;;22.92;;
30327;SDS011;17133;52.418;13.398;2022-08-19T11:40:41;24.63;;;22.13;;
30327;SDS011;17133;52.418;13.398;2022-08-19T11:43:07;23.83;;;21.27;;
30327;SDS011;17133;52.418;13.398;2022-08-19T11:45:33;23.38;;;20.92;;
30327;SDS011;17133;52.418;13.398;2022-08-19T11:47:59;22.08;;;19.88;;
30327;SDS011;17133;52.418;13.398;2022-08-19T11:50:24;22.73;;;20.42;;
30327;SDS011;17133;52.418;13.398;2022-08-19T11:52:53;22.20;;;20.10;;
30327;SDS011;17133;52.418;13.398;2022-08-19T11:55:19;23.02;;;20.73;;
30327;SDS011;17133;52.418;13.398;2022-08-19T11:57:45;21.92;;;19.63;;
30327;SDS011;17133;52.418;13.398;2022-08-19T12:00:11;21.95;;;19.77;;
30327;SDS011;17133;52.418;13.398;2022-08-19T12:02:38;21.65;;;19.58;;
30327;SDS011;17133;52.418;13.398;2022-08-19T12:05:04;22.88;;;20.48;;
30327;SDS011;17133;52.418;13.398;2022-08-19T12:07:30;22.95;;;20.50;;
30327;SDS011;17133;52.418;13.398;2022-08-19T12:09:58;21.92;;;19.88;;
30327;SDS011;17133;52.418;13.398;2022-08-19T12:12:25;22.77;;;20.42;;
30327;SDS011;17133;52.418;13.398;2022-08-19T12:14:52;22.42;;;20.17;;
30327;SDS011;17133;52.418;13.398;2022-08-19T12:17:25;24.38;;;21.88;;
30327;SDS011;17133;52.418;13.398;2022-08-19T12:19:51;19.35;;;17.40;;
30327;SDS011;17133;52.418;13.398;2022-08-19T12:22:17;19.05;;;17.17;;
30327;SDS011;17133;52.418;13.398;2022-08-19T12:24:44;18.40;;;16.75;;
30327;SDS011;17133;52.418;13.398;2022-08-19T12:27:09;17.77;;;16.13;;
30327;SDS011;17133;52.418;13.398;2022-08-19T12:29:35;17.50;;;15.75;;
30327;SDS011;17133;52.418;13.398;2022-08-19T12:32:01;18.00;;;16.23;;
30327;SDS011;17133;52.418;13.398;2022-08-19T12:34:28;17.85;;;15.85;;
30327;SDS011;17133;52.418;13.398;2022-08-19T12:36:55;17.40;;;15.63;;
30327;SDS011;17133;52.418;13.398;2022-08-19T12:39:26;17.30;;;15.52;;
30327;SDS011;17133;52.418;13.398;2022-08-19T12:41:52;17.85;;;16.13;;
30327;SDS011;17133;52.418;13.398;2022-08-19T12:44:18;19.25;;;14.52;;
30327;SDS011;17133;52.418;13.398;2022-08-19T12:46:44;16.80;;;15.23;;
30327;SDS011;17133;52.418;13.398;2022-08-19T12:49:09;17.35;;;14.25;;
30327;SDS011;17133;52.418;13.398;2022-08-19T12:51:35;15.60;;;14.10;;
30327;SDS011;17133;52.418;13.398;2022-08-19T12:54:00;15.80;;;14.30;;
30327;SDS011;17133;52.418;13.398;2022-08-19T12:56:26;16.63;;;14.93;;
30327;SDS011;17133;52.418;13.398;2022-08-19T12:58:52;16.00;;;14.40;;
30327;SDS011;17133;52.418;13.398;2022-08-19T13:01:18;15.63;;;14.13;;
30327;SDS011;17133;52.418;13.398;2022-08-19T13:03:45;15.60;;;13.98;;
30327;SDS011;17133;52.418;13.398;2022-08-19T13:06:11;15.00;;;13.35;;
30327;SDS011;17133;52.418;13.398;2022-08-19T13:08:38;15.48;;;13.40;;
30327;SDS011;17133;52.418;13.398;2022-08-19T13:11:22;18.40;;;14.57;;
30327;SDS011;17133;52.418;13.398;2022-08-19T13:13:49;16.63;;;14.65;;
30327;SDS011;17133;52.418;13.398;2022-08-19T13:16:16;14.82;;;13.32;;
30327;SDS011;17133;52.418;13.398;2022-08-19T13:18:44;14.43;;;12.93;;
30327;SDS011;17133;52.418;13.398;2022-08-19T13:21:16;19.10;;;13.38;;
30327;SDS011;17133;52.418;13.398;2022-08-19T13:23:44;14.52;;;13.00;;
30327;SDS011;17133;52.418;13.398;2022-08-19T13:26:11;14.45;;;12.93;;
30327;SDS011;17133;52.418;13.398;2022-08-19T13:28:37;14.60;;;13.10;;
30327;SDS011;17133;52.418;13.398;2022-08-19T13:31:23;18.88;;;14.13;;
30327;SDS011;17133;52.418;13.398;2022-08-19T13:34:09;14.95;;;13.43;;
30327;SDS011;17133;52.418;13.398;2022-08-19T13:36:35;15.63;;;14.07;;
30327;SDS011;17133;52.418;13.398;2022-08-19T13:39:02;17.55;;;15.38;;
30327;SDS011;17133;52.418;13.398;2022-08-19T13:41:29;16.75;;;15.15;;
30327;SDS011;17133;52.418;13.398;2022-08-19T13:43:55;15.85;;;14.07;;
30327;SDS011;17133;52.418;13.398;2022-08-19T13:46:21;15.45;;;13.95;;
30327;SDS011;17133;52.418;13.398;2022-08-19T13:48:47;16.60;;;15.00;;
30327;SDS011;17133;52.418;13.398;2022-08-19T13:51:13;15.82;;;14.30;;
30327;SDS011;17133;52.418;13.398;2022-08-19T13:53:41;16.27;;;14.68;;
30327;SDS011;17133;52.418;13.398;2022-08-19T13:56:10;17.63;;;15.82;;
30327;SDS011;17133;52.418;13.398;2022-08-19T13:58:38;17.00;;;15.40;;
30327;SDS011;17133;52.418;13.398;2022-08-19T14:01:04;15.75;;;14.15;;
30327;SDS011;17133;52.418;13.398;2022-08-19T14:03:31;17.88;;;16.05;;
30327;SDS011;17133;52.418;13.398;2022-08-19T14:05:58;16.85;;;15.27;;
30327;SDS011;17133;52.418;13.398;2022-08-19T14:08:24;17.30;;;15.55;;
30327;SDS011;17133;52.418;13.398;2022-08-19T14:10:52;15.90;;;14.48;;
30327;SDS011;17133;52.418;13.398;2022-08-19T14:13:20;16.88;;;15.25;;
30327;SDS011;17133;52.418;13.398;2022-08-19T14:15:48;16.70;;;15.02;;
30327;SDS011;17133;52.418;13.398;2022-08-19T14:18:15;15.48;;;13.98;;
30327;SDS011;17133;52.418;13.398;2022-08-19T14:20:42;16.58;;;14.98;;
30327;SDS011;17133;52.418;13.398;2022-08-19T14:23:08;17.02;;;15.32;;
30327;SDS011;17133;52.418;13.398;2022-08-19T14:25:34;15.43;;;13.95;;
30327;SDS011;17133;52.418;13.398;2022-08-19T14:28:00;16.65;;;14.93;;
30327;SDS011;17133;52.418;13.398;2022-08-19T14:30:30;16.65;;;14.95;;
30327;SDS011;17133;52.418;13.398;2022-08-19T14:32:58;16.40;;;14.77;;
30327;SDS011;17133;52.418;13.398;2022-08-19T14:35:26;17.77;;;16.02;;
30327;SDS011;17133;52.418;13.398;2022-08-19T14:37:52;15.82;;;14.32;;
30327;SDS011;17133;52.418;13.398;2022-08-19T14:40:23;17.00;;;15.27;;